createdAt,value
2019-06-08T00:01:41.305Z,22.7
2019-06-08T00:06:42.274Z,22.4
2019-06-08T00:11:41.187Z,22.2
2019-06-08T00:16:41.241Z,22.9
2019-06-08T00:21:41.232Z,22.4
2019-06-08T00:26:41.197Z,22.7
2019-06-08T00:31:43.191Z,23
2019-06-08T00:36:45.637Z,22.3
2019-06-08T00:41:41.214Z,22.3
2019-06-08T00:46:41.260Z,22.3
2019-06-08T00:51:42.237Z,22.6
2019-06-08T00:56:42.429Z,22.4
2019-06-08T01:01:43.422Z,22.1
2019-06-08T01:06:42.359Z,22.5
2019-06-08T01:11:41.610Z,22.1
2019-06-08T01:16:41.813Z,22.4
2019-06-08T01:21:42.459Z,22.3
2019-06-08T01:26:42.705Z,22
2019-06-08T01:31:41.183Z,21.9
2019-06-08T01:36:43.565Z,21.1
2019-06-08T01:41:42.224Z,21.7
2019-06-08T01:46:42.886Z,21.5
2019-06-08T01:51:41.169Z,21.7
2019-06-08T01:56:43.857Z,21.9
2019-06-08T02:01:42.599Z,22.2
2019-06-08T02:06:41.215Z,22.4
2019-06-08T02:11:41.478Z,22
2019-06-08T02:16:42.149Z,22.3
2019-06-08T02:21:41.389Z,23
2019-06-08T02:26:46.035Z,23.2
2019-06-08T02:31:48.483Z,23
2019-06-08T02:36:49.157Z,23.4
2019-06-08T02:41:41.720Z,22.7
2019-06-08T02:46:46.851Z,22.5
2019-06-08T02:51:47.599Z,22.5
2019-06-08T02:56:45.932Z,22.5
2019-06-08T03:01:46.193Z,23
2019-06-08T03:06:50.775Z,23.3
2019-06-08T03:11:48.057Z,23
2019-06-08T03:16:46.914Z,23.3
2019-06-08T03:21:44.619Z,24
2019-06-08T03:26:45.568Z,23.3
2019-06-08T03:31:57.973Z,23.7
2019-06-08T03:37:00.161Z,24.2
2019-06-08T03:41:45.361Z,23.7
2019-06-08T03:46:43.996Z,23.6
2019-06-08T03:51:54.611Z,24
2019-06-08T03:56:43.793Z,24.4
2019-06-08T04:01:43.924Z,24.3
2019-06-08T04:06:45.583Z,23.8
2019-06-08T04:11:45.000Z,23.8
2019-06-08T04:16:46.755Z,24.6
2019-06-08T04:21:44.398Z,24.4
2019-06-08T04:26:45.515Z,24.3
2019-06-08T04:31:45.911Z,24.4
2019-06-08T04:36:43.896Z,23.6
2019-06-08T04:38:00.772Z,23.8
2019-06-08T04:43:01.484Z,24.7
2019-06-08T04:48:00.589Z,24.8
2019-06-08T04:53:00.000Z,24.2
2019-06-08T04:58:01.477Z,25.1
2019-06-08T05:03:03.437Z,25.1
2019-06-08T05:08:02.869Z,24.4
2019-06-08T05:13:02.720Z,24.8
2019-06-08T05:18:00.226Z,25
2019-06-08T05:23:00.305Z,25.5
2019-06-08T05:28:00.007Z,25.7
2019-06-08T05:33:00.096Z,25.4
2019-06-08T05:38:00.254Z,25.2
2019-06-08T05:43:00.433Z,25.1
2019-06-08T05:48:00.572Z,26
2019-06-08T05:53:00.770Z,27.4
2019-06-08T05:58:00.999Z,27.9
2019-06-08T06:02:59.681Z,26.8
2019-06-08T06:07:59.689Z,26.4
2019-06-08T06:12:59.828Z,26.6
2019-06-08T06:18:02.266Z,26.6
2019-06-08T06:23:06.821Z,26.4
2019-06-08T06:28:00.170Z,26.6
2019-06-08T06:33:00.633Z,26.9
2019-06-08T06:38:00.675Z,26.8
2019-06-08T06:43:00.794Z,26.3
2019-06-08T06:48:05.219Z,27.5
2019-06-08T06:53:01.452Z,28
2019-06-08T06:57:59.961Z,27.3
2019-06-08T07:03:00.862Z,27.7
2019-06-08T07:08:00.881Z,26.8
2019-06-08T07:13:01.262Z,27.7
2019-06-08T07:18:02.915Z,27.1
2019-06-08T07:23:00.778Z,27
2019-06-08T07:28:01.559Z,27.1
2019-06-08T07:33:01.500Z,27
2019-06-08T07:38:03.860Z,27.5
2019-06-08T07:43:06.748Z,27.6
2019-06-08T07:48:00.659Z,27.4
2019-06-08T07:53:03.205Z,27.9
2019-06-08T07:58:02.651Z,27.8
2019-06-08T08:03:00.731Z,28
2019-06-08T08:08:01.143Z,28.3
2019-06-08T08:13:03.204Z,28.6
2019-06-08T08:18:02.060Z,28.4
2019-06-08T08:23:17.310Z,28.5
2019-06-08T08:28:08.183Z,28.8
2019-06-08T08:33:10.077Z,29.1
2019-06-08T08:38:17.687Z,27.9
2019-06-08T08:43:09.318Z,28.6
2019-06-08T08:48:34.301Z,28.5
2019-06-08T08:53:08.597Z,28.2
2019-06-08T08:58:08.192Z,28.3
2019-06-08T09:03:39.677Z,28.9
2019-06-08T09:08:08.779Z,29.2
2019-06-08T09:13:12.005Z,28.8
2019-06-08T09:18:08.074Z,29.5
2019-06-08T09:23:30.121Z,29.5
2019-06-08T09:28:09.192Z,30
2019-06-08T09:33:07.953Z,29.1
2019-06-08T09:38:08.475Z,29.7
2019-06-08T09:43:19.198Z,30.3
2019-06-08T09:48:11.816Z,30.2
2019-06-08T09:53:47.679Z,31.8
2019-06-08T09:58:11.749Z,30.7
2019-06-08T10:03:09.332Z,31.1
2019-06-08T10:08:09.259Z,30.7
2019-06-08T10:13:21.396Z,31.5
2019-06-08T10:18:08.234Z,31
2019-06-08T10:23:28.009Z,30.8
2019-06-08T10:28:21.659Z,31.5
2019-06-08T10:33:18.251Z,32
2019-06-08T10:38:21.353Z,33.5
2019-06-08T10:43:12.660Z,33.1
2019-06-08T10:48:10.558Z,32.1
2019-06-08T10:53:16.490Z,29.3
2019-06-08T10:58:08.838Z,30.9
2019-06-08T11:03:13.059Z,32.4
2019-06-08T11:08:14.239Z,33.1
2019-06-08T11:13:15.361Z,32.9
2019-06-08T11:18:13.671Z,33.5
2019-06-08T11:23:12.499Z,33.1
2019-06-08T11:28:14.618Z,33.1
2019-06-08T11:33:09.211Z,31.7
2019-06-08T11:38:11.306Z,31
2019-06-08T11:43:08.693Z,31.8
2019-06-08T11:48:08.625Z,33.1
2019-06-08T11:53:13.730Z,33.3
2019-06-08T11:58:10.369Z,32.9
2019-06-08T12:08:28.995Z,33.7
2019-06-08T12:13:30.137Z,34.8
2019-06-08T12:18:28.657Z,33.9
2019-06-08T12:23:24.996Z,31.7
2019-06-08T12:28:28.246Z,33.2
2019-06-08T12:33:31.415Z,35.5
2019-06-08T12:38:32.163Z,32.5
2019-06-08T12:43:30.540Z,31.5
2019-06-08T12:48:39.203Z,33.9
2019-06-08T12:53:38.141Z,34.7
2019-06-08T12:58:33.882Z,34.7
2019-06-08T13:03:27.661Z,32.7
2019-06-08T13:08:29.812Z,34.1
2019-06-08T13:13:37.721Z,33.7
2019-06-08T13:18:30.485Z,32.6
2019-06-08T13:23:29.987Z,32.6
2019-06-08T13:28:38.838Z,32.3
2019-06-08T13:33:25.385Z,31.8
2019-06-08T13:43:30.744Z,32.2
2019-06-08T13:48:28.339Z,31.9
2019-06-08T13:53:38.417Z,32.5
2019-06-08T13:58:38.959Z,31.8
2019-06-08T14:03:31.082Z,30.7
2019-06-08T14:08:33.265Z,31.6
2019-06-08T14:13:40.999Z,32.3
2019-06-08T14:18:40.160Z,31.6
2019-06-08T14:23:30.293Z,31.8
2019-06-08T14:28:30.522Z,30.8
2019-06-08T14:33:38.086Z,31.4
2019-06-08T14:38:41.136Z,30.8
2019-06-08T14:43:31.268Z,29.5
2019-06-08T14:48:34.421Z,29.6
2019-06-08T14:53:29.006Z,29.5
2019-06-08T14:58:38.819Z,29.3
2019-06-08T15:03:27.545Z,29.2
2019-06-08T15:08:28.207Z,28.9
2019-06-08T15:13:29.521Z,29.9
2019-06-08T15:23:41.169Z,29
2019-06-08T15:28:37.778Z,28.7
2019-06-08T15:33:44.605Z,29
2019-06-08T15:38:39.851Z,29.4
2019-06-08T15:43:40.269Z,29.7
2019-06-08T15:48:40.488Z,30.2
2019-06-08T15:53:37.788Z,29
2019-06-08T15:58:40.006Z,30.2
2019-06-08T16:03:31.638Z,29.9
2019-06-08T16:08:30.355Z,31.2
2019-06-08T16:13:31.051Z,31.1
2019-06-08T16:18:31.800Z,32.5
2019-06-08T16:23:31.908Z,32.5
2019-06-08T16:28:30.252Z,32.1
2019-06-08T16:33:31.684Z,32.3
2019-06-08T16:38:30.237Z,31.2
2019-06-08T16:43:31.029Z,28.6
2019-06-08T16:48:30.287Z,28.6
2019-06-08T16:53:32.287Z,28.8
2019-06-08T16:58:30.293Z,28.2
2019-06-08T17:03:30.701Z,28.4
2019-06-08T17:08:33.828Z,28.1
2019-06-08T17:13:30.232Z,27.6
2019-06-08T17:18:30.267Z,27.5
2019-06-08T17:23:30.660Z,27.3
2019-06-08T17:28:30.645Z,27.6
2019-06-08T17:33:31.078Z,27.4
2019-06-08T18:04:57.909Z,26.9
2019-06-08T18:09:57.649Z,26.9
2019-06-08T18:14:58.477Z,27.3
2019-06-08T18:19:59.943Z,27.3
2019-06-08T18:24:58.346Z,27.3
2019-06-08T18:29:59.200Z,27.2
2019-06-08T18:34:57.237Z,27.1
2019-06-08T18:39:59.592Z,27.1
2019-06-08T18:44:58.226Z,26.9
2019-06-08T18:49:58.887Z,26.8
2019-06-08T18:56:10.627Z,26.8
2019-06-08T19:01:15.871Z,26.8
2019-06-08T19:06:10.335Z,26
2019-06-08T19:11:14.321Z,26.8
2019-06-08T19:16:13.923Z,26.6
2019-06-08T19:21:10.150Z,26.4
2019-06-08T19:26:10.961Z,26.6
2019-06-08T19:31:11.039Z,26.4
2019-06-08T19:36:28.005Z,26.3
2019-06-08T19:41:17.487Z,26.3
2019-06-08T19:46:13.471Z,26.1
2019-06-08T19:51:10.576Z,26.1
2019-06-08T19:56:14.088Z,26.2
2019-06-08T20:01:17.328Z,25.6
2019-06-08T20:06:09.222Z,26.3
2019-06-08T20:11:14.557Z,25.4
2019-06-08T20:16:17.368Z,25.8
2019-06-08T20:21:11.104Z,25.7
2019-06-08T20:26:11.225Z,25.4
2019-06-08T20:31:10.463Z,25.4
2019-06-08T20:36:11.078Z,26
2019-06-08T20:41:10.422Z,25.2
2019-06-08T20:46:09.919Z,25.4
2019-06-08T20:51:14.054Z,25.7
2019-06-08T20:56:14.226Z,25.7
2019-06-08T21:01:10.166Z,25.6
2019-06-08T21:06:10.719Z,25.7
2019-06-08T21:11:14.866Z,25.8
2019-06-08T21:16:18.051Z,25.6
2019-06-08T21:21:14.474Z,24.4
2019-06-08T21:26:18.341Z,24.2
2019-06-08T21:31:17.707Z,24.3
2019-06-08T21:36:21.257Z,23.7
2019-06-08T21:41:18.750Z,24.2
2019-06-08T21:46:16.085Z,25.1
2019-06-08T21:51:16.719Z,24.6
2019-06-08T21:56:10.897Z,24.9
2019-06-08T22:01:17.838Z,24.7
2019-06-08T22:06:14.200Z,24.7
2019-06-08T22:11:17.576Z,24.4
2019-06-08T22:16:18.510Z,24.1
2019-06-08T22:21:18.064Z,24.4
2019-06-08T22:26:17.742Z,24.3
2019-06-08T22:31:17.051Z,24.2
2019-06-08T22:36:15.301Z,24
2019-06-08T22:41:17.342Z,24
2019-06-08T22:46:17.772Z,23.9
2019-06-08T22:51:18.880Z,24
2019-06-08T22:56:18.250Z,23.8
2019-06-08T23:01:24.623Z,23.6
2019-06-08T23:06:24.250Z,24.3
2019-06-08T23:11:18.767Z,24.1
2019-06-08T23:16:19.147Z,23.4
2019-06-08T23:26:38.191Z,24.4
2019-06-08T23:37:22.358Z,24.3
2019-06-08T23:41:18.373Z,24.2
2019-06-08T23:51:11.008Z,23.7
2019-06-08T23:56:18.457Z,23.2
